createdAt,value
2022-10-07T00:00:00.626Z,6.51
2022-10-07T00:00:32.117Z,6.51
2022-10-07T00:01:04.141Z,6.40
2022-10-07T00:01:35.272Z,6.40
2022-10-07T00:01:52.134Z,6.40
2022-10-07T00:02:24.886Z,6.40
2022-10-07T00:02:42.475Z,6.40
2022-10-07T00:03:11.949Z,6.40
2022-10-07T00:03:35.346Z,6.40
2022-10-07T00:03:59.621Z,6.40
2022-10-07T00:04:31.601Z,6.40
2022-10-07T00:05:04.069Z,6.40
2022-10-07T00:05:34.946Z,6.40
2022-10-07T00:06:07.200Z,6.40
2022-10-07T00:06:24.664Z,6.40
2022-10-07T00:06:41.871Z,6.40
2022-10-07T00:07:11.772Z,6.35
2022-10-07T00:07:34.797Z,6.35
2022-10-07T00:08:00.347Z,6.35
2022-10-07T00:08:31.595Z,6.35
2022-10-07T00:09:05.200Z,6.35
2022-10-07T00:09:34.797Z,6.35
2022-10-07T00:09:51.902Z,6.35
2022-10-07T00:10:23.908Z,6.35
2022-10-07T00:10:40.710Z,6.35
2022-10-07T00:11:12.505Z,6.35
2022-10-07T00:11:34.916Z,6.35
2022-10-07T00:11:59.801Z,6.35
2022-10-07T00:12:31.732Z,6.35
2022-10-07T00:13:04.326Z,6.41
2022-10-07T00:13:35.273Z,6.41
2022-10-07T00:13:51.588Z,6.24
2022-10-07T00:14:24.270Z,6.24
2022-10-07T00:14:41.437Z,6.24
2022-10-07T00:15:12.247Z,6.24
2022-10-07T00:15:34.917Z,6.24
2022-10-07T00:15:59.966Z,6.41
2022-10-07T00:16:33.072Z,6.41
2022-10-07T00:17:03.725Z,6.41
2022-10-07T00:17:35.333Z,6.41
2022-10-07T00:18:07.852Z,6.41
2022-10-07T00:18:34.788Z,6.41
2022-10-07T00:18:56.937Z,6.41
2022-10-07T00:19:28.101Z,6.24
2022-10-07T00:20:01.472Z,6.24
2022-10-07T00:20:31.661Z,6.24
2022-10-07T00:21:03.660Z,6.41
2022-10-07T00:21:34.929Z,6.41
2022-10-07T00:22:07.207Z,6.30
2022-10-07T00:22:24.416Z,6.30
2022-10-07T00:22:42.545Z,6.30
2022-10-07T00:23:12.081Z,6.41
2022-10-07T00:23:35.405Z,6.41
2022-10-07T00:24:00.066Z,6.24
2022-10-07T00:24:32.020Z,6.24
2022-10-07T00:25:04.732Z,6.24
2022-10-07T00:25:34.826Z,6.24
2022-10-07T00:25:51.951Z,6.41
2022-10-07T00:26:23.789Z,6.41
2022-10-07T00:26:40.924Z,6.41
2022-10-07T00:27:12.509Z,6.41
2022-10-07T00:27:35.008Z,6.41
2022-10-07T00:27:59.905Z,6.24
2022-10-07T00:28:31.878Z,6.41
2022-10-07T00:29:03.656Z,6.41
2022-10-07T00:29:34.941Z,6.41
2022-10-07T00:30:07.405Z,6.41
2022-10-07T00:30:24.442Z,6.41
2022-10-07T00:30:41.839Z,6.41
2022-10-07T00:31:11.983Z,6.24
2022-10-07T00:31:35.399Z,6.24
2022-10-07T00:32:00.502Z,6.24
2022-10-07T00:32:31.600Z,6.24
2022-10-07T00:33:04.601Z,6.24
2022-10-07T00:33:34.970Z,6.24
2022-10-07T00:33:51.598Z,6.41
2022-10-07T00:34:23.963Z,6.24
2022-10-07T00:34:41.737Z,6.41
2022-10-07T00:35:13.001Z,6.24
2022-10-07T00:35:35.350Z,6.24
2022-10-07T00:36:00.244Z,6.24
2022-10-07T00:36:32.414Z,6.24
2022-10-07T00:37:03.564Z,6.41
2022-10-07T00:37:34.805Z,6.41
2022-10-07T00:38:06.979Z,6.41
2022-10-07T00:38:24.477Z,6.41
2022-10-07T00:38:42.443Z,6.24
2022-10-07T00:39:11.585Z,6.41
2022-10-07T00:39:35.019Z,6.24
2022-10-07T00:39:59.910Z,6.13
2022-10-07T00:40:31.927Z,6.30
2022-10-07T00:41:04.487Z,6.30
2022-10-07T00:41:35.384Z,6.30
2022-10-07T00:41:52.533Z,6.30
2022-10-07T00:42:24.873Z,6.24
2022-10-07T00:42:42.764Z,6.24
2022-10-07T00:43:11.770Z,6.24
2022-10-07T00:43:35.425Z,6.24
2022-10-07T00:44:00.083Z,6.24
2022-10-07T00:44:32.912Z,6.24
2022-10-07T00:45:03.899Z,6.24
2022-10-07T00:45:36.120Z,6.24
2022-10-07T00:46:07.806Z,6.24
2022-10-07T00:46:35.150Z,6.24
2022-10-07T00:46:56.712Z,6.24
2022-10-07T00:47:27.857Z,6.24
2022-10-07T00:48:16.379Z,6.24
2022-10-07T00:48:35.668Z,6.24
2022-10-07T00:49:03.548Z,6.24
2022-10-07T00:49:34.786Z,6.24
2022-10-07T00:50:07.319Z,6.24
2022-10-07T00:50:24.277Z,6.24
2022-10-07T00:50:41.562Z,6.24
2022-10-07T00:51:11.590Z,6.24
2022-10-07T00:51:34.942Z,6.24
2022-10-07T00:52:00.056Z,6.24
2022-10-07T00:52:33.091Z,6.24
2022-10-07T00:53:04.147Z,6.13
2022-10-07T00:53:35.178Z,6.13
2022-10-07T00:53:52.655Z,6.13
2022-10-07T00:54:23.772Z,6.13
2022-10-07T00:54:40.899Z,6.02
2022-10-07T00:55:12.341Z,6.18
2022-10-07T00:55:35.076Z,6.18
2022-10-07T00:56:00.703Z,6.02
2022-10-07T00:56:31.670Z,6.07
2022-10-07T00:57:04.489Z,6.07
2022-10-07T00:57:34.928Z,6.07
2022-10-07T00:57:51.677Z,6.18
2022-10-07T00:58:23.578Z,6.07
2022-10-07T00:58:41.431Z,6.07
2022-10-07T00:59:12.332Z,6.07
2022-10-07T00:59:34.782Z,6.07
2022-10-07T00:59:59.609Z,6.07
2022-10-07T01:00:31.806Z,6.07
2022-10-07T01:01:03.743Z,6.07
2022-10-07T01:01:35.183Z,6.07
2022-10-07T01:02:07.976Z,6.02
2022-10-07T01:02:35.549Z,6.02
2022-10-07T01:02:55.662Z,5.92
2022-10-07T01:03:28.161Z,5.92
2022-10-07T01:03:59.732Z,5.92
2022-10-07T01:04:31.942Z,6.08
2022-10-07T01:05:04.157Z,5.92
2022-10-07T01:05:35.281Z,5.92
2022-10-07T01:05:52.908Z,6.08
2022-10-07T01:06:23.933Z,6.08
2022-10-07T01:06:41.882Z,6.02
2022-10-07T01:07:12.772Z,6.02
2022-10-07T01:07:35.214Z,5.92
2022-10-07T01:07:59.808Z,6.19
2022-10-07T01:08:32.009Z,6.19
2022-10-07T01:09:04.170Z,6.02
2022-10-07T01:09:35.231Z,6.07
2022-10-07T01:09:51.914Z,6.07
2022-10-07T01:10:24.948Z,6.07
2022-10-07T01:10:42.948Z,6.07
2022-10-07T01:11:12.053Z,6.07
2022-10-07T01:11:35.157Z,6.07
2022-10-07T01:11:59.541Z,6.07
2022-10-07T01:12:32.887Z,6.18
2022-10-07T01:13:03.876Z,6.18
2022-10-07T01:13:35.793Z,6.18
2022-10-07T01:14:07.581Z,6.18
2022-10-07T01:14:35.267Z,6.18
2022-10-07T01:14:56.450Z,6.18
2022-10-07T01:15:27.868Z,6.18
2022-10-07T01:15:59.798Z,6.18
2022-10-07T01:16:31.636Z,6.18
2022-10-07T01:17:03.635Z,6.18
2022-10-07T01:17:35.278Z,6.18
2022-10-07T01:17:51.998Z,6.30
2022-10-07T01:18:25.281Z,6.30
2022-10-07T01:18:42.448Z,6.30
2022-10-07T01:19:12.083Z,6.41
2022-10-07T01:19:35.296Z,6.41
2022-10-07T01:19:59.959Z,6.24
2022-10-07T01:20:32.067Z,6.24
2022-10-07T01:21:04.279Z,6.35
2022-10-07T01:21:35.255Z,6.35
2022-10-07T01:21:52.000Z,6.35
2022-10-07T01:22:24.875Z,6.35
2022-10-07T01:22:42.764Z,6.35
2022-10-07T01:23:12.079Z,6.35
2022-10-07T01:23:35.241Z,6.35
2022-10-07T01:23:59.806Z,6.35
2022-10-07T01:24:32.810Z,6.35
2022-10-07T01:25:03.778Z,6.35
2022-10-07T01:25:35.374Z,6.35
2022-10-07T01:26:07.567Z,6.35
2022-10-07T01:26:34.945Z,6.35
2022-10-07T01:26:56.421Z,6.35
2022-10-07T01:27:28.064Z,6.35
2022-10-07T01:28:01.129Z,6.35
2022-10-07T01:28:32.291Z,6.35
2022-10-07T01:29:03.887Z,6.35
2022-10-07T01:29:35.705Z,6.24
2022-10-07T01:29:52.149Z,6.24
2022-10-07T01:30:25.009Z,6.24
2022-10-07T01:30:42.635Z,6.24
2022-10-07T01:31:12.082Z,6.24
2022-10-07T01:31:35.303Z,6.24
2022-10-07T01:31:59.955Z,6.35
2022-10-07T01:32:31.788Z,6.35
2022-10-07T01:33:03.562Z,6.35
2022-10-07T01:33:35.419Z,6.35
2022-10-07T01:34:07.783Z,6.24
2022-10-07T01:34:34.836Z,6.24
2022-10-07T01:34:56.132Z,6.24
2022-10-07T01:35:29.028Z,6.24
2022-10-07T01:35:59.924Z,6.24
2022-10-07T01:36:31.907Z,6.24
2022-10-07T01:37:04.118Z,6.24
2022-10-07T01:37:35.337Z,6.24
2022-10-07T01:38:07.974Z,6.24
2022-10-07T01:38:35.148Z,6.24
2022-10-07T01:38:57.128Z,6.24
2022-10-07T01:39:27.799Z,6.24
2022-10-07T01:40:00.557Z,6.24
2022-10-07T01:40:31.595Z,6.24
2022-10-07T01:41:04.666Z,6.24
2022-10-07T01:41:34.979Z,6.24
2022-10-07T01:42:07.164Z,6.24
2022-10-07T01:42:24.494Z,6.24
2022-10-07T01:42:41.600Z,6.24
2022-10-07T01:43:11.766Z,6.24
2022-10-07T01:43:35.279Z,6.24
2022-10-07T01:44:00.026Z,6.24
2022-10-07T01:44:33.325Z,6.24
2022-10-07T01:45:04.226Z,6.24
2022-10-07T01:45:35.625Z,6.24
2022-10-07T01:46:08.066Z,6.24
2022-10-07T01:46:35.643Z,6.24
2022-10-07T01:46:55.626Z,6.24
2022-10-07T01:47:27.569Z,6.24
2022-10-07T01:48:01.171Z,6.24
2022-10-07T01:48:31.749Z,6.24
2022-10-07T01:49:04.414Z,6.24
2022-10-07T01:49:35.422Z,6.24
2022-10-07T01:50:08.139Z,6.24
2022-10-07T01:50:34.775Z,6.24
2022-10-07T01:50:56.061Z,6.13
2022-10-07T01:51:29.091Z,6.13
2022-10-07T01:52:00.089Z,6.13
2022-10-07T01:52:32.785Z,6.13
2022-10-07T01:53:03.643Z,6.02
2022-10-07T01:53:34.951Z,6.18
2022-10-07T01:54:08.721Z,6.18
2022-10-07T01:54:35.015Z,6.18
2022-10-07T01:54:55.663Z,6.13
2022-10-07T01:55:27.859Z,6.13
2022-10-07T01:55:59.766Z,6.13
2022-10-07T01:56:31.567Z,6.30
2022-10-07T01:57:04.034Z,6.30
2022-10-07T01:57:34.989Z,6.13
2022-10-07T01:57:51.903Z,6.13
2022-10-07T01:58:24.894Z,6.13
2022-10-07T01:58:42.479Z,6.30
2022-10-07T01:59:11.816Z,6.30
2022-10-07T01:59:35.283Z,6.30
2022-10-07T02:00:00.007Z,6.13
2022-10-07T02:00:32.204Z,6.13
2022-10-07T02:01:04.079Z,6.13
2022-10-07T02:01:35.418Z,6.13
2022-10-07T02:02:07.783Z,6.30
2022-10-07T02:02:35.261Z,6.02
2022-10-07T02:02:55.885Z,6.18
2022-10-07T02:03:29.070Z,6.18
2022-10-07T02:04:00.509Z,6.18
2022-10-07T02:04:31.857Z,6.18
2022-10-07T02:05:03.952Z,6.18
2022-10-07T02:05:35.219Z,6.18
2022-10-07T02:06:08.185Z,6.18
2022-10-07T02:06:35.133Z,6.18
2022-10-07T02:06:56.550Z,6.18
2022-10-07T02:07:27.758Z,6.18
2022-10-07T02:08:00.951Z,6.18
2022-10-07T02:08:31.939Z,6.18
2022-10-07T02:09:03.785Z,6.18
2022-10-07T02:09:35.188Z,6.07
2022-10-07T02:09:51.813Z,6.07
2022-10-07T02:10:24.790Z,6.07
2022-10-07T02:10:55.741Z,6.18
2022-10-07T02:11:28.794Z,6.18
2022-10-07T02:11:59.826Z,6.18
2022-10-07T02:12:32.859Z,6.02
2022-10-07T02:13:03.799Z,6.13
2022-10-07T02:13:35.597Z,6.13
2022-10-07T02:14:07.919Z,6.13
2022-10-07T02:14:34.779Z,6.13
2022-10-07T02:14:56.590Z,6.13
2022-10-07T02:15:35.755Z,6.13
2022-10-07T02:16:01.435Z,6.13
2022-10-07T02:16:32.011Z,6.13
2022-10-07T02:17:03.830Z,6.02
2022-10-07T02:17:35.068Z,6.02
2022-10-07T02:17:51.782Z,6.02
2022-10-07T02:18:24.475Z,6.02
2022-10-07T02:18:41.914Z,6.02
2022-10-07T02:19:12.167Z,6.18
2022-10-07T02:19:35.341Z,6.18
2022-10-07T02:19:59.990Z,6.18
2022-10-07T02:20:31.886Z,6.13
2022-10-07T02:21:03.796Z,6.13
2022-10-07T02:21:35.440Z,6.13
2022-10-07T02:22:08.024Z,6.13
2022-10-07T02:22:35.612Z,6.13
2022-10-07T02:22:55.556Z,6.13
2022-10-07T02:23:28.478Z,6.13
2022-10-07T02:23:59.758Z,6.13
2022-10-07T02:24:31.967Z,6.13
2022-10-07T02:25:03.922Z,6.13
2022-10-07T02:25:34.792Z,6.24
2022-10-07T02:26:08.762Z,6.24
2022-10-07T02:26:35.027Z,6.24
2022-10-07T02:26:55.747Z,6.24
2022-10-07T02:27:28.941Z,6.24
2022-10-07T02:27:59.846Z,6.35
2022-10-07T02:28:31.774Z,6.35
2022-10-07T02:29:05.061Z,6.17
2022-10-07T02:29:35.089Z,6.17
2022-10-07T02:29:52.147Z,6.17
2022-10-07T02:30:24.242Z,6.17
2022-10-07T02:30:41.121Z,6.17
2022-10-07T02:31:12.615Z,6.17
2022-10-07T02:31:35.573Z,6.17
2022-10-07T02:32:00.218Z,6.17
2022-10-07T02:32:33.187Z,6.35
2022-10-07T02:33:04.014Z,6.17
2022-10-07T02:33:35.603Z,6.17
2022-10-07T02:34:08.033Z,6.17
2022-10-07T02:34:35.237Z,6.17
2022-10-07T02:34:57.084Z,6.17
2022-10-07T02:35:27.768Z,6.17
2022-10-07T02:36:00.799Z,6.17
2022-10-07T02:36:32.275Z,6.17
2022-10-07T02:37:04.517Z,6.17
2022-10-07T02:37:34.787Z,6.17
2022-10-07T02:38:07.020Z,6.22
2022-10-07T02:38:24.431Z,6.22
2022-10-07T02:38:41.571Z,6.22
2022-10-07T02:39:11.587Z,6.22
2022-10-07T02:39:34.824Z,6.22
2022-10-07T02:40:00.907Z,6.22
2022-10-07T02:40:31.934Z,6.22
2022-10-07T02:41:04.881Z,6.22
2022-10-07T02:41:35.184Z,6.22
2022-10-07T02:41:52.229Z,6.22
2022-10-07T02:42:24.903Z,6.22
2022-10-07T02:42:42.918Z,6.22
2022-10-07T02:43:11.906Z,6.22
2022-10-07T02:43:35.332Z,6.22
2022-10-07T02:44:00.249Z,6.22
2022-10-07T02:44:32.294Z,6.22
2022-10-07T02:45:04.174Z,6.22
2022-10-07T02:45:35.167Z,6.22
2022-10-07T02:45:52.286Z,6.22
2022-10-07T02:46:24.856Z,6.22
2022-10-07T02:46:42.736Z,6.22
2022-10-07T02:47:11.758Z,6.22
2022-10-07T02:47:35.282Z,6.22
2022-10-07T02:48:00.114Z,6.22
2022-10-07T02:48:32.167Z,6.22
2022-10-07T02:49:04.182Z,6.22
2022-10-07T02:49:35.468Z,6.17
2022-10-07T02:50:08.062Z,6.17
2022-10-07T02:50:35.231Z,6.17
2022-10-07T02:50:55.777Z,6.17
2022-10-07T02:51:29.243Z,6.17
2022-10-07T02:52:00.074Z,6.06
2022-10-07T02:52:31.783Z,6.06
2022-10-07T02:53:03.781Z,6.06
2022-10-07T02:53:34.921Z,6.06
2022-10-07T02:54:08.416Z,6.06
2022-10-07T02:54:34.787Z,6.06
2022-10-07T02:54:55.749Z,6.06
2022-10-07T02:55:28.236Z,6.06
2022-10-07T02:56:00.076Z,6.06
2022-10-07T02:56:31.623Z,6.06
2022-10-07T02:57:03.689Z,6.13
2022-10-07T02:57:34.996Z,5.96
2022-10-07T02:58:07.121Z,5.96
2022-10-07T02:58:24.442Z,5.96
2022-10-07T02:58:41.609Z,6.13
2022-10-07T02:59:11.624Z,6.13
2022-10-07T02:59:35.605Z,6.13
2022-10-07T02:59:59.768Z,6.13
2022-10-07T03:00:32.561Z,6.13
2022-10-07T03:01:03.567Z,6.13
2022-10-07T03:01:36.058Z,6.13
2022-10-07T03:02:07.972Z,6.13
2022-10-07T03:02:35.285Z,6.13
2022-10-07T03:02:55.557Z,6.24
2022-10-07T03:03:27.834Z,6.06
2022-10-07T03:04:00.625Z,6.06
2022-10-07T03:04:32.008Z,6.06
2022-10-07T03:05:04.234Z,5.96
2022-10-07T03:05:35.202Z,5.96
2022-10-07T03:05:52.169Z,6.13
2022-10-07T03:06:23.849Z,5.96
2022-10-07T03:06:42.752Z,5.96
2022-10-07T03:07:12.117Z,5.96
2022-10-07T03:07:34.850Z,6.13
2022-10-07T03:08:00.167Z,6.13
2022-10-07T03:08:33.012Z,5.96
2022-10-07T03:09:03.926Z,6.13
2022-10-07T03:09:36.025Z,6.13
2022-10-07T03:10:08.402Z,6.13
2022-10-07T03:10:35.197Z,6.13
2022-10-07T03:10:57.117Z,6.02
2022-10-07T03:11:28.326Z,6.02
2022-10-07T03:12:01.027Z,6.02
2022-10-07T03:12:31.580Z,6.02
2022-10-07T03:13:04.698Z,5.91
2022-10-07T03:13:35.020Z,5.91
2022-10-07T03:13:52.093Z,5.91
2022-10-07T03:14:25.097Z,5.91
2022-10-07T03:14:42.226Z,5.91
2022-10-07T03:15:11.893Z,5.86
2022-10-07T03:15:39.718Z,5.86
2022-10-07T03:15:59.919Z,5.86
2022-10-07T03:16:32.216Z,5.86
2022-10-07T03:17:03.567Z,5.86
2022-10-07T03:17:35.211Z,5.86
2022-10-07T03:17:52.396Z,5.86
2022-10-07T03:18:24.994Z,5.86
2022-10-07T03:18:41.843Z,5.86
2022-10-07T03:19:11.627Z,5.92
2022-10-07T03:19:34.903Z,5.92
2022-10-07T03:20:00.628Z,5.92
2022-10-07T03:20:31.675Z,5.92
2022-10-07T03:21:05.188Z,5.81
2022-10-07T03:21:35.190Z,5.81
2022-10-07T03:22:07.918Z,5.81
2022-10-07T03:22:35.361Z,5.69
2022-10-07T03:22:56.102Z,5.69
2022-10-07T03:23:29.366Z,5.69
2022-10-07T03:23:59.610Z,5.69
2022-10-07T03:24:32.443Z,5.69
2022-10-07T03:25:03.815Z,5.69
2022-10-07T03:25:36.234Z,5.69
2022-10-07T03:26:07.981Z,5.86
2022-10-07T03:26:35.149Z,5.86
2022-10-07T03:26:55.638Z,5.86
2022-10-07T03:27:27.841Z,5.69
2022-10-07T03:28:00.750Z,5.69
2022-10-07T03:28:32.417Z,5.69
2022-10-07T03:29:04.784Z,5.86
2022-10-07T03:29:35.371Z,5.75
2022-10-07T03:30:09.040Z,5.75
2022-10-07T03:30:35.159Z,5.75
2022-10-07T03:30:55.845Z,5.75
2022-10-07T03:31:28.030Z,5.75
2022-10-07T03:31:59.917Z,5.75
2022-10-07T03:32:31.963Z,5.75
2022-10-07T03:33:03.932Z,5.75
2022-10-07T03:33:35.282Z,5.75
2022-10-07T03:33:51.684Z,5.75
2022-10-07T03:34:24.818Z,5.75
2022-10-07T03:34:42.310Z,5.75
2022-10-07T03:35:11.997Z,5.75
2022-10-07T03:35:35.399Z,5.75
2022-10-07T03:35:59.840Z,5.75
2022-10-07T03:36:32.961Z,5.75
2022-10-07T03:37:03.975Z,5.86
2022-10-07T03:37:36.122Z,5.86
2022-10-07T03:38:07.607Z,5.86
2022-10-07T03:38:35.278Z,5.86
2022-10-07T03:38:56.772Z,5.81
2022-10-07T03:39:28.103Z,5.97
2022-10-07T03:40:00.347Z,5.81
2022-10-07T03:40:31.748Z,5.81
2022-10-07T03:41:03.640Z,5.81
2022-10-07T03:41:35.660Z,5.81
2022-10-07T03:42:07.585Z,5.81
2022-10-07T03:42:35.018Z,5.81
2022-10-07T03:42:55.796Z,5.81
2022-10-07T03:43:28.287Z,5.81
2022-10-07T03:43:59.972Z,5.81
2022-10-07T03:44:32.496Z,5.81
2022-10-07T03:45:03.890Z,5.81
2022-10-07T03:45:36.174Z,5.81
2022-10-07T03:46:08.019Z,5.81
2022-10-07T03:46:35.157Z,5.69
2022-10-07T03:46:55.833Z,5.69
2022-10-07T03:47:27.675Z,5.86
2022-10-07T03:48:00.573Z,5.69
2022-10-07T03:48:31.993Z,5.81
2022-10-07T03:49:04.688Z,5.81
2022-10-07T03:49:35.231Z,5.81
2022-10-07T03:49:51.964Z,5.81
2022-10-07T03:50:24.547Z,5.81
2022-10-07T03:50:41.437Z,5.81
2022-10-07T03:51:11.564Z,5.81
2022-10-07T03:51:34.798Z,5.81
2022-10-07T03:52:00.695Z,5.81
2022-10-07T03:52:32.000Z,5.81
2022-10-07T03:53:04.020Z,5.81
2022-10-07T03:53:35.137Z,5.81
2022-10-07T03:53:51.513Z,5.81
2022-10-07T03:54:24.591Z,5.81
2022-10-07T03:54:42.870Z,5.81
2022-10-07T03:55:11.918Z,5.69
2022-10-07T03:55:34.784Z,5.69
2022-10-07T03:55:59.808Z,5.69
2022-10-07T03:56:31.569Z,5.69
2022-10-07T03:57:04.727Z,5.69
2022-10-07T03:57:34.828Z,5.69
2022-10-07T03:58:07.139Z,5.86
2022-10-07T03:58:24.617Z,5.86
2022-10-07T03:58:41.959Z,5.86
2022-10-07T03:59:11.979Z,5.86
2022-10-07T03:59:35.161Z,5.86
2022-10-07T03:59:59.757Z,5.69
2022-10-07T04:00:33.455Z,5.69
2022-10-07T04:01:03.535Z,5.69
2022-10-07T04:01:35.110Z,5.69
2022-10-07T04:01:52.453Z,5.69
2022-10-07T04:02:24.130Z,5.86
2022-10-07T04:02:42.014Z,5.86
2022-10-07T04:03:12.160Z,5.69
2022-10-07T04:03:35.141Z,5.86
2022-10-07T04:03:59.891Z,5.86
2022-10-07T04:04:32.102Z,5.86
2022-10-07T04:05:04.398Z,5.86
2022-10-07T04:05:35.308Z,5.81
2022-10-07T04:05:51.783Z,5.81
2022-10-07T04:06:24.330Z,5.81
2022-10-07T04:06:42.072Z,5.97
2022-10-07T04:07:12.120Z,5.81
2022-10-07T04:07:34.823Z,5.81
2022-10-07T04:07:59.705Z,5.81
2022-10-07T04:08:32.597Z,5.81
2022-10-07T04:09:03.752Z,5.69
2022-10-07T04:09:34.914Z,5.69
2022-10-07T04:10:07.395Z,5.69
2022-10-07T04:10:24.814Z,5.69
2022-10-07T04:10:42.060Z,5.69
2022-10-07T04:11:11.877Z,5.58
2022-10-07T04:11:35.231Z,5.58
2022-10-07T04:12:00.218Z,5.75
2022-10-07T04:12:32.945Z,5.75
2022-10-07T04:13:03.933Z,5.75
2022-10-07T04:13:35.271Z,5.86
2022-10-07T04:14:07.959Z,5.69
2022-10-07T04:14:35.890Z,5.69
2022-10-07T04:14:56.426Z,5.69
2022-10-07T04:15:27.838Z,5.86
2022-10-07T04:16:00.273Z,5.75
2022-10-07T04:16:38.245Z,5.75
2022-10-07T04:17:03.706Z,5.58
2022-10-07T04:17:35.012Z,5.75
2022-10-07T04:17:51.735Z,5.75
2022-10-07T04:18:24.041Z,5.75
2022-10-07T04:18:41.123Z,5.75
2022-10-07T04:19:12.371Z,5.75
2022-10-07T04:19:34.838Z,5.75
2022-10-07T04:19:59.576Z,5.75
2022-10-07T04:20:32.729Z,5.75
2022-10-07T04:21:03.622Z,5.75
2022-10-07T04:21:34.839Z,5.75
2022-10-07T04:21:52.732Z,5.75
2022-10-07T04:22:24.236Z,5.70
2022-10-07T04:22:41.532Z,5.70
2022-10-07T04:23:11.835Z,5.70
2022-10-07T04:23:35.003Z,5.70
2022-10-07T04:24:00.898Z,5.70
2022-10-07T04:24:31.632Z,5.75
2022-10-07T04:25:04.283Z,5.75
2022-10-07T04:25:35.523Z,5.75
2022-10-07T04:26:07.973Z,5.75
2022-10-07T04:26:35.253Z,5.75
2022-10-07T04:26:55.569Z,5.75
2022-10-07T04:27:50.603Z,5.75
2022-10-07T04:28:00.491Z,5.75
2022-10-07T04:28:32.315Z,5.70
2022-10-07T04:29:04.113Z,5.70
2022-10-07T04:29:39.094Z,5.70
2022-10-07T04:30:08.005Z,5.70
2022-10-07T04:30:35.617Z,5.70
2022-10-07T04:30:56.350Z,5.70
2022-10-07T04:31:28.225Z,5.70
2022-10-07T04:32:00.871Z,5.70
2022-10-07T04:32:31.891Z,5.59
2022-10-07T04:33:05.074Z,5.59
2022-10-07T04:33:35.539Z,5.48
2022-10-07T04:34:08.413Z,5.48
2022-10-07T04:34:35.264Z,5.65
2022-10-07T04:34:56.010Z,5.48
2022-10-07T04:35:28.127Z,5.65
2022-10-07T04:36:00.095Z,5.65
2022-10-07T04:36:31.587Z,5.65
2022-10-07T04:37:03.864Z,5.65
2022-10-07T04:37:35.102Z,5.65
2022-10-07T04:37:52.301Z,5.75
2022-10-07T04:38:28.221Z,5.75
2022-10-07T04:38:43.042Z,5.75
2022-10-07T04:39:11.883Z,5.65
2022-10-07T04:39:59.108Z,5.65
2022-10-07T04:40:15.961Z,5.65
2022-10-07T04:40:48.182Z,5.65
2022-10-07T04:41:20.088Z,5.53
2022-10-07T04:41:51.988Z,5.53
2022-10-07T04:42:23.867Z,5.53
2022-10-07T04:42:42.287Z,5.53
2022-10-07T04:43:11.902Z,5.53
2022-10-07T04:43:35.154Z,5.53
2022-10-07T04:43:59.604Z,5.53
2022-10-07T04:44:31.662Z,5.42
2022-10-07T04:45:03.982Z,5.42
2022-10-07T04:45:35.274Z,5.42
2022-10-07T04:46:07.790Z,5.42
2022-10-07T04:46:35.314Z,5.42
2022-10-07T04:46:55.903Z,5.42
2022-10-07T04:47:29.136Z,5.42
2022-10-07T04:48:00.003Z,5.42
2022-10-07T04:48:31.567Z,5.42
2022-10-07T04:49:03.886Z,5.42
2022-10-07T04:49:35.244Z,5.42
2022-10-07T04:50:08.167Z,5.58
2022-10-07T04:50:34.951Z,5.58
2022-10-07T04:50:56.787Z,5.42
2022-10-07T04:51:27.618Z,5.58
2022-10-07T04:51:59.922Z,5.58
2022-10-07T04:52:31.964Z,5.58
2022-10-07T04:53:03.611Z,5.58
2022-10-07T04:53:35.251Z,5.58
2022-10-07T04:54:07.715Z,5.58
2022-10-07T04:54:35.044Z,5.58
2022-10-07T04:54:56.013Z,5.58
2022-10-07T04:55:28.594Z,5.58
2022-10-07T04:55:59.607Z,5.58
2022-10-07T04:56:32.586Z,5.58
2022-10-07T04:57:03.713Z,5.58
2022-10-07T04:57:34.948Z,5.58
2022-10-07T04:58:08.431Z,5.58
2022-10-07T04:58:34.921Z,5.58
2022-10-07T04:58:55.806Z,5.58
2022-10-07T04:59:29.964Z,5.53
2022-10-07T04:59:59.649Z,5.53
2022-10-07T05:00:31.868Z,5.53
2022-10-07T05:01:03.734Z,5.53
2022-10-07T05:01:34.874Z,5.53
2022-10-07T05:02:07.216Z,5.53
2022-10-07T05:02:24.534Z,5.53
2022-10-07T05:02:41.588Z,5.53
2022-10-07T05:03:11.685Z,5.53
2022-10-07T05:03:34.992Z,5.53
2022-10-07T05:03:59.751Z,5.53
2022-10-07T05:04:32.546Z,5.53
2022-10-07T05:05:03.724Z,5.53
2022-10-07T05:05:34.861Z,5.53
2022-10-07T05:06:08.248Z,5.53
2022-10-07T05:06:34.873Z,5.53
2022-10-07T05:06:55.550Z,5.53
2022-10-07T05:07:28.425Z,5.53
2022-10-07T05:07:59.798Z,5.53
2022-10-07T05:08:31.960Z,5.53
2022-10-07T05:09:03.578Z,5.53
2022-10-07T05:09:34.840Z,5.53
2022-10-07T05:10:08.788Z,5.53
2022-10-07T05:10:34.862Z,5.53
2022-10-07T05:10:55.748Z,5.53
2022-10-07T05:11:27.607Z,5.53
2022-10-07T05:11:59.648Z,5.53
2022-10-07T05:12:31.662Z,5.53
2022-10-07T05:13:03.676Z,5.53
2022-10-07T05:13:34.979Z,5.53
2022-10-07T05:14:07.220Z,5.53
2022-10-07T05:14:24.442Z,5.53
2022-10-07T05:14:42.117Z,5.53
2022-10-07T05:15:11.917Z,5.58
2022-10-07T05:15:34.814Z,5.58
2022-10-07T05:15:59.807Z,5.74
2022-10-07T05:16:31.620Z,5.58
2022-10-07T05:17:04.422Z,5.58
2022-10-07T05:17:34.923Z,5.69
2022-10-07T05:17:51.620Z,5.69
2022-10-07T05:18:24.243Z,5.69
2022-10-07T05:18:41.916Z,5.69
2022-10-07T05:19:11.651Z,5.69
2022-10-07T05:19:35.003Z,5.69
2022-10-07T05:19:59.798Z,5.69
2022-10-07T05:20:31.849Z,5.69
2022-10-07T05:21:04.328Z,5.69
2022-10-07T05:21:34.886Z,5.69
2022-10-07T05:22:07.099Z,5.69
2022-10-07T05:22:24.262Z,5.69
2022-10-07T05:22:42.089Z,5.69
2022-10-07T05:23:11.587Z,5.69
2022-10-07T05:23:34.957Z,5.69
2022-10-07T05:23:59.568Z,5.58
2022-10-07T05:24:32.314Z,5.58
2022-10-07T05:25:03.826Z,5.58
2022-10-07T05:25:34.955Z,5.58
2022-10-07T05:26:08.303Z,5.58
2022-10-07T05:26:34.755Z,5.58
2022-10-07T05:26:55.805Z,5.58
2022-10-07T05:27:28.093Z,5.58
2022-10-07T05:27:59.771Z,5.58
2022-10-07T05:28:31.640Z,5.58
2022-10-07T05:29:03.649Z,5.58
2022-10-07T05:29:34.824Z,5.58
2022-10-07T05:30:07.385Z,5.58
2022-10-07T05:30:24.338Z,5.58
2022-10-07T05:30:42.053Z,5.53
2022-10-07T05:31:11.697Z,5.53
2022-10-07T05:31:35.081Z,5.53
2022-10-07T05:32:04.544Z,5.58
2022-10-07T05:32:31.563Z,5.58
2022-10-07T05:33:04.415Z,5.58
2022-10-07T05:33:34.935Z,5.58
2022-10-07T05:33:51.647Z,5.58
2022-10-07T05:34:24.209Z,5.58
2022-10-07T05:34:41.835Z,5.58
2022-10-07T05:35:11.746Z,5.58
2022-10-07T05:35:34.954Z,5.58
2022-10-07T05:35:59.855Z,5.58
2022-10-07T05:36:32.793Z,5.58
2022-10-07T05:37:03.595Z,5.58
2022-10-07T05:37:36.335Z,5.58
2022-10-07T05:38:07.697Z,5.58
2022-10-07T05:38:35.335Z,5.58
2022-10-07T05:38:56.442Z,5.58
2022-10-07T05:39:27.603Z,5.58
2022-10-07T05:39:59.637Z,5.58
2022-10-07T05:40:31.953Z,5.58
2022-10-07T05:41:03.767Z,5.69
2022-10-07T05:41:44.905Z,5.69
2022-10-07T05:41:51.637Z,5.81
2022-10-07T05:42:24.510Z,5.81
2022-10-07T05:42:42.274Z,5.81
2022-10-07T05:43:11.788Z,5.81
2022-10-07T05:43:35.391Z,5.81
2022-10-07T05:43:59.685Z,5.81
2022-10-07T05:44:32.574Z,5.92
2022-10-07T05:45:04.007Z,5.92
2022-10-07T05:45:35.771Z,5.92
2022-10-07T05:46:08.216Z,5.92
2022-10-07T05:46:35.022Z,5.92
2022-10-07T05:46:55.843Z,5.92
2022-10-07T05:47:27.878Z,5.92
2022-10-07T05:48:00.619Z,5.81
2022-10-07T05:48:36.619Z,5.81
2022-10-07T05:49:04.613Z,5.81
2022-10-07T05:49:35.022Z,5.81
2022-10-07T05:50:07.392Z,5.81
2022-10-07T05:50:24.555Z,5.81
2022-10-07T05:50:42.818Z,5.81
2022-10-07T05:51:11.787Z,5.81
2022-10-07T05:51:35.046Z,5.65
2022-10-07T05:51:59.843Z,5.65
2022-10-07T05:52:32.162Z,5.81
2022-10-07T05:53:04.727Z,5.65
2022-10-07T05:53:35.512Z,5.65
2022-10-07T05:54:09.432Z,5.65
2022-10-07T05:54:35.675Z,5.65
2022-10-07T05:54:56.237Z,5.81
2022-10-07T05:55:29.121Z,5.81
2022-10-07T05:55:59.880Z,5.81
2022-10-07T05:56:32.136Z,5.65
2022-10-07T05:57:04.088Z,5.81
2022-10-07T05:57:35.255Z,5.92
2022-10-07T05:57:52.732Z,5.92
2022-10-07T05:58:23.929Z,5.92
2022-10-07T05:58:40.902Z,5.92
2022-10-07T05:59:11.906Z,5.92
2022-10-07T05:59:35.120Z,5.92
2022-10-07T06:00:00.824Z,5.92
2022-10-07T06:00:35.103Z,5.75
2022-10-07T06:01:08.747Z,5.75
2022-10-07T06:01:35.057Z,5.92
2022-10-07T06:02:07.444Z,5.75
2022-10-07T06:02:24.554Z,5.75
2022-10-07T06:02:41.732Z,5.75
2022-10-07T06:03:11.913Z,5.75
2022-10-07T06:03:34.911Z,5.75
2022-10-07T06:04:00.503Z,5.75
2022-10-07T06:04:31.657Z,5.75
2022-10-07T06:05:06.098Z,5.92
2022-10-07T06:05:35.057Z,5.92
2022-10-07T06:06:07.308Z,5.75
2022-10-07T06:06:24.826Z,5.75
2022-10-07T06:06:41.950Z,5.86
2022-10-07T06:07:11.980Z,5.86
2022-10-07T06:07:35.463Z,5.86
2022-10-07T06:08:00.379Z,5.86
2022-10-07T06:08:31.673Z,5.86
2022-10-07T06:09:03.761Z,5.91
2022-10-07T06:09:35.091Z,5.91
2022-10-07T06:09:51.941Z,5.91
2022-10-07T06:10:24.554Z,5.91
2022-10-07T06:10:42.635Z,5.91
2022-10-07T06:11:11.726Z,5.91
2022-10-07T06:11:35.103Z,5.91
2022-10-07T06:12:00.437Z,5.91
2022-10-07T06:12:31.709Z,5.91
2022-10-07T06:13:04.916Z,5.91
2022-10-07T06:13:35.261Z,5.91